Time;durP1;ratioP1;P1;durP2;ratioP2;P2;SDS_P1;SDS_P2;PMS_P1;PMS_P2;Temp;Humidity;BMP_temperature;BMP_pressure;BME280_temperature;BME280_humidity;BME280_pressure;Samples;Min_cycle;Max_cycle;Signal;HPM_P1;HPM_P2
2022/10/18 00:01:31;;;;;;;35.70;4.43;;;9.30;99.90;;;;;;5017226;28;20057;-74
2022/10/18 00:03:59;;;;;;;28.95;4.60;;;8.20;99.90;;;;;;5018260;28;20287;-74
2022/10/18 00:06:26;;;;;;;25.17;3.85;;;8.20;99.90;;;;;;5001548;28;20049;-72
2022/10/18 00:08:54;;;;;;;37.53;4.07;;;10.20;99.90;;;;;;4999838;28;20069;-73
2022/10/18 00:11:21;;;;;;;23.48;3.75;;;8.30;99.90;;;;;;5018456;28;20049;-73
2022/10/18 00:13:49;;;;;;;31.27;4.40;;;9.50;99.90;;;;;;5018064;28;20050;-72
2022/10/18 00:16:17;;;;;;;28.40;4.00;;;8.30;99.90;;;;;;5031715;28;20357;-73
2022/10/18 00:18:46;;;;;;;;;;;8.30;99.90;;;;;;5038582;28;20038;-73
2022/10/18 00:21:17;;;;;;;25.83;3.58;;;8.30;99.90;;;;;;5036903;28;19921;-73
2022/10/18 00:23:46;;;;;;;24.73;3.95;;;8.90;99.90;;;;;;5038000;28;20484;-74
2022/10/18 00:26:16;;;;;;;31.67;4.20;;;8.80;99.90;;;;;;5037873;28;20356;-72
2022/10/18 00:28:45;;;;;;;25.92;3.70;;;8.30;99.90;;;;;;5037155;28;20052;-73
2022/10/18 00:31:24;;;;;;;33.33;3.50;;;8.40;99.90;;;;;;5037640;28;20485;-73
2022/10/18 00:33:55;;;;;;;29.17;4.07;;;8.30;99.90;;;;;;5037683;28;20045;-72
2022/10/18 00:36:24;;;;;;;30.60;3.75;;;8.40;99.90;;;;;;5035486;28;20045;-73
2022/10/18 00:38:52;;;;;;;20.42;3.30;;;9.20;99.90;;;;;;5037296;28;20053;-73
2022/10/18 00:41:25;;;;;;;32.55;3.60;;;8.30;99.90;;;;;;5036402;28;20048;-72
2022/10/18 00:44:00;;;;;;;28.60;3.58;;;8.30;99.90;;;;;;5037516;28;20050;-73
2022/10/18 00:46:40;;;;;;;34.70;3.95;;;8.30;99.90;;;;;;5037339;28;20373;-72
2022/10/18 00:49:12;;;;;;;29.25;3.78;;;8.30;99.90;;;;;;5036128;28;20385;-73
2022/10/18 00:51:45;;;;;;;24.33;3.50;;;8.80;99.90;;;;;;5037466;28;20053;-73
2022/10/18 00:54:14;;;;;;;18.80;3.67;;;8.70;99.90;;;;;;5037402;28;20041;-73
2022/10/18 00:56:43;;;;;;;31.17;3.70;;;8.80;99.90;;;;;;5035122;28;20045;-73
2022/10/18 00:59:13;;;;;;;24.83;3.42;;;8.30;99.90;;;;;;5037182;28;20041;-73
2022/10/18 01:01:41;;;;;;;30.25;3.72;;;9.00;99.90;;;;;;5036649;28;20068;-73
2022/10/18 01:04:09;;;;;;;30.17;3.53;;;8.20;99.90;;;;;;5035720;28;20468;-73
2022/10/18 01:06:47;;;;;;;20.38;3.30;;;9.70;99.90;;;;;;5037294;28;20460;-74
2022/10/18 01:09:28;;;;;;;26.95;3.80;;;8.20;99.90;;;;;;5035827;28;20045;-72
2022/10/18 01:12:18;;;;;;;30.90;3.47;;;8.20;99.90;;;;;;5036761;28;20060;-73
2022/10/18 01:15:09;;;;;;;25.42;3.33;;;8.20;99.90;;;;;;5035049;28;20061;-74
2022/10/18 01:17:45;;;;;;;29.20;3.47;;;8.10;99.90;;;;;;5036782;28;20071;-74
2022/10/18 01:20:37;;;;;;;24.52;3.45;;;8.10;99.90;;;;;;5036565;28;20045;-74
2022/10/18 01:23:16;;;;;;;26.42;3.50;;;8.10;99.90;;;;;;5035775;28;20053;-74
2022/10/18 01:25:59;;;;;;;34.08;3.63;;;8.20;99.90;;;;;;5035937;28;20522;-72
2022/10/18 01:28:41;;;;;;;23.33;3.13;;;8.00;99.90;;;;;;5018349;28;20045;-72
2022/10/18 01:31:22;;;;;;;32.22;4.25;;;9.30;99.90;;;;;;5036812;28;20060;-72
2022/10/18 01:33:58;;;;;;;18.50;3.80;;;8.00;99.90;;;;;;5035885;28;20053;-72
2022/10/18 01:36:36;;;;;;;30.73;4.22;;;9.60;99.90;;;;;;5035347;28;20060;-72
2022/10/18 01:39:09;;;;;;;22.88;3.83;;;7.90;99.90;;;;;;5036153;28;20384;-73
2022/10/18 01:41:40;;;;;;;22.30;4.18;;;7.80;99.90;;;;;;5035945;28;20048;-73
2022/10/18 01:44:13;;;;;;;26.58;4.20;;;7.80;99.90;;;;;;5036593;28;20457;-72
2022/10/18 01:46:42;;;;;;;34.80;4.57;;;8.10;99.90;;;;;;5035641;28;20049;-74
2022/10/18 01:49:10;;;;;;;28.52;4.15;;;7.80;99.90;;;;;;5035105;28;20053;-73
2022/10/18 01:51:37;;;;;;;22.77;3.55;;;7.80;99.90;;;;;;5036030;28;20495;-74
2022/10/18 01:54:05;;;;;;;21.27;3.35;;;7.70;99.90;;;;;;5036150;28;20052;-73
2022/10/18 01:56:56;;;;;;;28.05;4.13;;;7.70;99.90;;;;;;5034849;28;20053;-75
2022/10/18 01:59:50;;;;;;;25.90;3.72;;;7.60;99.90;;;;;;5035370;28;20467;-74
2022/10/18 02:02:34;;;;;;;31.83;3.97;;;7.60;99.90;;;;;;5035288;28;20363;-71
2022/10/18 02:05:13;;;;;;;20.08;3.63;;;7.60;99.90;;;;;;5036418;28;20045;-71
2022/10/18 02:07:50;;;;;;;24.38;3.60;;;7.60;99.90;;;;;;5035783;28;20042;-73
2022/10/18 02:10:48;;;;;;;25.15;4.03;;;7.60;99.90;;;;;;5036339;28;20041;-73
2022/10/18 02:13:19;;;;;;;22.23;3.30;;;7.50;99.90;;;;;;5036099;28;20048;-73
2022/10/18 02:15:53;;;;;;;27.70;3.58;;;7.50;99.90;;;;;;5033636;28;20476;-72
2022/10/18 02:18:28;;;;;;;26.38;3.45;;;7.40;99.90;;;;;;5035480;28;20056;-74
2022/10/18 02:20:56;;;;;;;24.60;3.78;;;8.40;99.90;;;;;;5035608;28;20060;-73
2022/10/18 02:23:25;;;;;;;26.75;3.60;;;7.10;99.90;;;;;;5034600;28;20045;-74
2022/10/18 02:25:53;;;;;;;23.27;3.50;;;7.30;99.90;;;;;;5035570;28;20056;-71
2022/10/18 02:28:21;;;;;;;;;;;7.30;99.90;;;;;;5034739;28;20411;-73
2022/10/18 02:31:00;;;;;;;25.60;3.05;;;7.30;99.90;;;;;;5035586;28;20279;-72
2022/10/18 02:33:40;;;;;;;19.60;2.78;;;7.30;99.90;;;;;;5035808;28;20056;-74
2022/10/18 02:36:31;;;;;;;16.08;2.95;;;7.20;99.90;;;;;;5034299;28;20057;-71
2022/10/18 02:39:06;;;;;;;20.95;3.00;;;7.30;99.90;;;;;;5028845;28;20080;-73
2022/10/18 02:41:34;;;;;;;25.38;3.10;;;7.20;99.90;;;;;;5034094;28;20456;-72
2022/10/18 02:44:01;;;;;;;18.17;2.78;;;7.20;99.90;;;;;;5035522;28;20041;-73
2022/10/18 02:46:29;;;;;;;26.65;3.45;;;7.30;99.90;;;;;;5035233;28;20468;-71
2022/10/18 02:48:56;;;;;;;18.30;2.75;;;7.50;99.90;;;;;;5033388;28;20053;-74
2022/10/18 02:51:24;;;;;;;21.08;3.53;;;7.20;99.90;;;;;;5035180;28;20053;-72
2022/10/18 02:53:51;;;;;;;22.15;3.28;;;7.60;99.90;;;;;;5034982;28;20041;-73
2022/10/18 02:56:19;;;;;;;23.90;3.40;;;7.80;99.90;;;;;;5034121;28;20060;-73
2022/10/18 02:58:46;;;;;;;21.65;3.50;;;7.20;99.90;;;;;;5035196;28;20356;-72
2022/10/18 03:01:14;;;;;;;31.90;3.90;;;7.30;99.90;;;;;;5033782;28;20048;-73
2022/10/18 03:03:42;;;;;;;22.00;3.15;;;8.50;99.90;;;;;;5034162;28;20388;-74
2022/10/18 03:06:09;;;;;;;24.60;3.35;;;8.10;99.90;;;;;;5035006;28;20497;-73
2022/10/18 03:08:37;;;;;;;20.50;3.13;;;8.00;99.90;;;;;;5032798;28;20052;-74
2022/10/18 03:11:04;;;;;;;26.00;3.10;;;7.40;99.90;;;;;;5035182;28;20045;-74
2022/10/18 03:13:32;;;;;;;20.38;2.92;;;7.90;99.90;;;;;;5034790;28;20499;-73
2022/10/18 03:16:01;;;;;;;24.30;4.05;;;7.20;99.90;;;;;;5020169;28;20050;-73
2022/10/18 03:18:28;;;;;;;26.90;3.40;;;7.20;99.90;;;;;;4997851;28;20477;-72
2022/10/18 03:20:56;;;;;;;26.85;2.83;;;8.50;99.90;;;;;;5014879;28;20457;-72
2022/10/18 03:23:23;;;;;;;22.67;3.10;;;7.20;99.90;;;;;;5013895;28;20038;-74
2022/10/18 03:25:51;;;;;;;21.20;2.83;;;7.10;99.90;;;;;;4998910;28;20057;-73
2022/10/18 03:28:18;;;;;;;24.30;2.92;;;7.10;99.90;;;;;;5003287;28;20477;-73
2022/10/18 03:30:46;;;;;;;25.08;2.90;;;7.10;99.90;;;;;;5004212;28;20042;-74
2022/10/18 03:33:13;;;;;;;21.45;3.13;;;7.00;99.90;;;;;;5020695;28;20479;-72
2022/10/18 03:35:41;;;;;;;26.90;3.33;;;7.10;99.90;;;;;;5020241;28;20461;-74
2022/10/18 03:38:08;;;;;;;24.58;2.95;;;7.10;99.90;;;;;;5021326;28;20465;-72
2022/10/18 03:40:36;;;;;;;20.92;3.03;;;7.00;99.90;;;;;;5022122;28;20046;-72
2022/10/18 03:43:04;;;;;;;;;;;6.90;99.90;;;;;;5003519;28;20049;-74
2022/10/18 03:45:31;;;;;;;18.88;2.67;;;6.90;99.90;;;;;;5021604;28;19922;-73
2022/10/18 03:47:59;;;;;;;14.30;2.42;;;6.80;99.90;;;;;;5020055;28;20057;-73
2022/10/18 03:50:26;;;;;;;22.40;3.22;;;6.80;99.90;;;;;;5004218;28;20046;-74
2022/10/18 03:52:54;;;;;;;31.15;3.80;;;8.60;99.90;;;;;;5021216;28;20377;-73
2022/10/18 03:55:22;;;;;;;28.80;3.38;;;6.90;99.90;;;;;;5020030;28;20050;-73
2022/10/18 03:57:49;;;;;;;23.15;2.75;;;6.80;99.90;;;;;;5021299;28;20046;-72
2022/10/18 04:00:17;;;;;;;22.70;3.05;;;6.70;99.90;;;;;;5021218;28;20046;-72
2022/10/18 04:02:44;;;;;;;25.30;3.50;;;6.70;99.90;;;;;;5019975;28;20461;-73
2022/10/18 04:05:13;;;;;;;26.13;3.45;;;6.70;99.90;;;;;;5004406;28;20045;-73
2022/10/18 04:07:40;;;;;;;23.90;3.10;;;6.80;99.90;;;;;;5003845;28;20053;-71
2022/10/18 04:10:08;;;;;;;21.70;3.47;;;6.70;99.90;;;;;;5002952;28;20065;-73
2022/10/18 04:12:35;;;;;;;24.50;3.45;;;6.70;99.90;;;;;;5020984;28;20050;-71
2022/10/18 04:15:04;;;;;;;21.08;2.90;;;8.80;99.90;;;;;;5010709;28;20072;-73
2022/10/18 04:17:31;;;;;;;19.67;2.80;;;6.70;99.90;;;;;;5039853;28;20052;-74
2022/10/18 04:19:59;;;;;;;22.23;3.40;;;7.90;99.90;;;;;;5040591;28;20045;-74
2022/10/18 04:22:27;;;;;;;18.52;2.83;;;6.60;99.90;;;;;;5039619;28;20041;-72
2022/10/18 04:24:55;;;;;;;12.55;2.70;;;6.50;99.90;;;;;;5040742;28;20345;-71
2022/10/18 04:27:23;;;;;;;21.27;3.03;;;6.50;99.90;;;;;;5040901;28;20044;-72
2022/10/18 04:29:50;;;;;;;25.42;3.47;;;6.50;99.90;;;;;;5039560;28;20045;-73
2022/10/18 04:32:18;;;;;;;23.35;3.38;;;6.50;99.90;;;;;;5039777;28;20049;-73
2022/10/18 04:34:45;;;;;;;17.27;2.78;;;6.50;99.90;;;;;;5038745;28;20045;-73
2022/10/18 04:37:13;;;;;;;19.83;3.03;;;6.50;99.90;;;;;;5023436;28;20364;-71
2022/10/18 04:39:45;;;;;;;27.63;3.25;;;6.60;99.90;;;;;;5036405;28;20068;-74
2022/10/18 04:42:19;;;;;;;22.08;2.97;;;6.50;99.90;;;;;;5035573;28;20050;-73
2022/10/18 04:44:46;;;;;;;27.15;3.53;;;6.50;99.90;;;;;;5037804;28;20045;-72
2022/10/18 04:47:15;;;;;;;20.30;3.35;;;6.50;99.90;;;;;;5037426;28;20507;-72
2022/10/18 04:49:42;;;;;;;21.80;2.80;;;6.40;99.90;;;;;;5036317;28;20360;-72
2022/10/18 04:52:10;;;;;;;19.27;3.40;;;6.50;99.90;;;;;;5037692;28;20045;-73
2022/10/18 04:54:38;;;;;;;21.27;2.88;;;6.40;99.90;;;;;;5036207;28;20064;-73
2022/10/18 04:57:05;;;;;;;17.92;3.15;;;6.40;99.90;;;;;;5037770;28;20068;-72
2022/10/18 04:59:33;;;;;;;19.13;3.33;;;6.40;99.90;;;;;;5037062;28;20046;-72
2022/10/18 05:02:00;;;;;;;19.80;3.58;;;6.40;99.90;;;;;;5036015;28;20060;-72
2022/10/18 05:04:28;;;;;;;18.67;2.95;;;6.40;99.90;;;;;;5036515;28;20456;-73
2022/10/18 05:06:55;;;;;;;28.73;3.55;;;6.30;99.90;;;;;;5037007;28;20042;-73
2022/10/18 05:09:23;;;;;;;19.40;3.45;;;6.30;99.90;;;;;;5035844;28;20064;-72
2022/10/18 05:11:51;;;;;;;19.77;3.67;;;6.30;99.90;;;;;;5037097;28;20056;-73
2022/10/18 05:14:18;;;;;;;21.67;3.40;;;6.30;99.90;;;;;;5037369;28;20050;-73
2022/10/18 05:16:46;;;;;;;24.60;3.67;;;6.30;99.90;;;;;;5016169;28;20049;-72
2022/10/18 05:19:13;;;;;;;28.63;3.60;;;6.30;99.90;;;;;;5016232;28;20503;-72
2022/10/18 05:21:41;;;;;;;23.45;3.35;;;6.30;99.90;;;;;;5016010;28;20054;-71
2022/10/18 05:24:10;;;;;;;20.10;3.40;;;6.40;99.90;;;;;;5017547;28;20046;-72
2022/10/18 05:26:38;;;;;;;31.27;3.75;;;6.30;99.90;;;;;;5016825;28;20053;-72
2022/10/18 05:29:05;;;;;;;33.67;3.70;;;7.40;99.90;;;;;;5015798;28;20388;-72
2022/10/18 05:31:33;;;;;;;24.13;3.20;;;6.30;99.90;;;;;;5016696;28;20046;-73
2022/10/18 05:34:01;;;;;;;21.05;3.70;;;6.60;99.90;;;;;;4999831;28;20050;-73
2022/10/18 05:36:28;;;;;;;24.77;3.20;;;6.30;99.90;;;;;;5015471;28;20369;-72
2022/10/18 05:38:56;;;;;;;25.10;4.38;;;6.30;99.90;;;;;;4983404;28;20034;-73
2022/10/18 05:41:30;;;;;;;18.52;3.25;;;6.30;99.90;;;;;;5015399;28;20294;-73
2022/10/18 05:44:01;;;;;;;23.63;3.78;;;6.80;99.90;;;;;;4999408;28;20049;-72
2022/10/18 05:46:29;;;;;;;22.95;3.60;;;6.30;99.90;;;;;;4999721;28;20041;-72
2022/10/18 05:48:56;;;;;;;25.80;3.85;;;6.20;99.90;;;;;;5014890;28;20046;-73
2022/10/18 05:51:24;;;;;;;22.60;3.67;;;6.20;99.90;;;;;;5016729;28;20045;-73
2022/10/18 05:53:53;;;;;;;19.65;3.58;;;8.20;99.90;;;;;;5016646;28;20069;-73
2022/10/18 05:56:21;;;;;;;28.00;3.38;;;6.20;99.90;;;;;;5015169;28;20046;-72
2022/10/18 05:58:50;;;;;;;20.35;3.45;;;7.80;99.90;;;;;;5016331;28;20045;-73
2022/10/18 06:01:18;;;;;;;23.30;3.47;;;6.20;99.90;;;;;;5015195;28;20468;-72
2022/10/18 06:03:46;;;;;;;20.63;3.22;;;6.20;99.90;;;;;;5016137;28;20053;-73
2022/10/18 06:06:14;;;;;;;20.85;3.33;;;6.10;99.90;;;;;;5016166;28;20049;-73
2022/10/18 06:08:43;;;;;;;19.50;3.45;;;6.10;99.90;;;;;;5015220;28;20038;-72
2022/10/18 06:11:15;;;;;;;19.33;3.90;;;6.10;99.90;;;;;;4999295;28;20064;-74
2022/10/18 06:13:45;;;;;;;22.38;3.42;;;6.10;99.90;;;;;;5015986;28;20053;-72
2022/10/18 06:16:15;;;;;;;19.50;3.53;;;6.10;99.90;;;;;;5024513;28;20465;-73
2022/10/18 06:18:46;;;;;;;22.33;3.72;;;7.80;99.90;;;;;;5035542;28;20049;-73
2022/10/18 06:21:13;;;;;;;20.52;3.33;;;6.10;99.90;;;;;;5034663;28;20053;-73
2022/10/18 06:23:41;;;;;;;13.93;3.58;;;6.90;99.90;;;;;;5034783;28;20053;-73
2022/10/18 06:26:10;;;;;;;19.15;3.90;;;6.00;99.90;;;;;;5034829;28;20364;-72
2022/10/18 06:28:38;;;;;;;16.20;4.10;;;6.00;99.90;;;;;;5034277;28;20049;-72
2022/10/18 06:31:05;;;;;;;16.08;3.67;;;6.00;99.90;;;;;;5035940;28;20045;-72
2022/10/18 06:33:35;;;;;;;21.15;4.00;;;6.00;99.90;;;;;;5035397;28;20045;-74
2022/10/18 06:36:21;;;;;;;22.67;4.47;;;6.00;99.90;;;;;;5033719;28;20057;-72
2022/10/18 06:38:49;;;;;;;25.52;4.65;;;7.10;99.90;;;;;;5034675;28;20048;-73
2022/10/18 06:41:18;;;;;;;17.77;3.92;;;7.10;99.90;;;;;;5034095;28;20468;-73
2022/10/18 06:43:49;;;;;;;15.85;4.05;;;6.40;99.90;;;;;;5035527;28;20376;-72
2022/10/18 06:46:16;;;;;;;23.67;4.40;;;6.00;99.90;;;;;;5035081;28;20481;-73
2022/10/18 06:48:44;;;;;;;15.52;4.07;;;6.00;99.90;;;;;;5047847;28;20041;-72
2022/10/18 06:51:11;;;;;;;15.93;4.55;;;7.20;99.90;;;;;;5054775;28;20049;-73
2022/10/18 06:53:39;;;;;;;25.20;4.68;;;6.00;99.90;;;;;;5054620;28;20067;-72
2022/10/18 06:56:19;;;;;;;21.20;3.80;;;6.00;99.90;;;;;;5053060;28;20475;-73
2022/10/18 06:58:47;;;;;;;18.00;5.32;;;6.00;99.90;;;;;;5054606;28;20045;-73
2022/10/18 07:01:16;;;;;;;39.33;8.30;;;6.00;99.90;;;;;;5052913;28;20041;-72
2022/10/18 07:03:45;;;;;;;24.40;5.20;;;6.00;99.90;;;;;;5054328;28;20048;-73
2022/10/18 07:06:15;;;;;;;17.88;5.10;;;6.10;99.90;;;;;;5054580;28;20048;-72
2022/10/18 07:08:43;;;;;;;24.27;5.40;;;7.00;99.90;;;;;;5053598;28;20041;-73
2022/10/18 07:11:19;;;;;;;21.23;5.32;;;6.60;99.90;;;;;;5054429;28;20052;-72
2022/10/18 07:13:47;;;;;;;25.45;5.00;;;6.10;99.90;;;;;;5054495;28;20049;-73
2022/10/18 07:16:17;;;;;;;26.67;5.82;;;6.20;99.90;;;;;;5037648;28;20049;-74
2022/10/18 07:18:50;;;;;;;20.30;5.10;;;7.30;99.90;;;;;;5016945;28;20049;-74
2022/10/18 07:21:21;;;;;;;24.20;5.45;;;6.60;99.90;;;;;;5033462;28;20045;-73
2022/10/18 07:23:49;;;;;;;22.00;5.35;;;7.90;99.90;;;;;;5016998;28;20049;-72
2022/10/18 07:26:19;;;;;;;26.55;5.72;;;6.20;99.90;;;;;;5034275;28;20042;-72
2022/10/18 07:28:54;;;;;;;26.90;5.65;;;6.20;99.90;;;;;;5033653;28;20057;-72
2022/10/18 07:31:22;;;;;;;26.23;5.95;;;6.20;99.90;;;;;;5034094;28;20046;-75
2022/10/18 07:33:50;;;;;;;;;;;6.30;99.90;;;;;;5035006;28;20356;-74
2022/10/18 07:36:18;;;;;;;24.80;6.20;;;6.30;99.90;;;;;;5033711;28;19931;-72
2022/10/18 07:38:45;;;;;;;22.10;5.45;;;7.50;99.90;;;;;;5035040;28;20369;-73
2022/10/18 07:41:13;;;;;;;21.48;5.78;;;6.50;99.90;;;;;;5034112;28;20049;-73
2022/10/18 07:43:44;;;;;;;18.42;5.65;;;6.40;99.90;;;;;;5034508;28;20037;-74
2022/10/18 07:46:13;;;;;;;21.13;5.80;;;8.20;99.90;;;;;;5034582;28;20037;-72
2022/10/18 07:48:41;;;;;;;30.75;5.90;;;6.50;99.90;;;;;;5033472;28;20053;-72
2022/10/18 07:51:09;;;;;;;28.27;6.68;;;6.50;99.90;;;;;;5017337;28;20064;-74
2022/10/18 07:53:37;;;;;;;27.60;6.43;;;8.30;99.90;;;;;;5017292;28;20045;-72
2022/10/18 07:56:08;;;;;;;28.33;5.90;;;6.60;99.90;;;;;;5033547;28;20088;-73
2022/10/18 07:58:36;;;;;;;25.55;6.45;;;6.60;99.90;;;;;;5035088;28;20064;-72
2022/10/18 08:01:05;;;;;;;25.27;5.63;;;6.70;99.90;;;;;;5016846;28;20053;-73
2022/10/18 08:03:34;;;;;;;21.55;6.22;;;6.70;99.90;;;;;;5016408;28;20376;-73
2022/10/18 08:06:02;;;;;;;27.17;7.20;;;6.80;99.90;;;;;;5034607;28;20049;-73
2022/10/18 08:08:30;;;;;;;31.52;6.78;;;6.80;99.90;;;;;;5015954;28;20046;-73
2022/10/18 08:11:03;;;;;;;27.35;6.95;;;6.90;99.90;;;;;;5034268;28;20053;-73
2022/10/18 08:13:31;;;;;;;35.67;6.97;;;7.00;99.90;;;;;;5019747;28;20054;-73
2022/10/18 08:16:07;;;;;;;24.45;6.88;;;7.10;99.90;;;;;;5037084;28;20060;-73
2022/10/18 08:18:35;;;;;;;23.30;6.75;;;7.10;99.90;;;;;;5038085;28;20065;-73
2022/10/18 08:21:05;;;;;;;33.15;7.90;;;8.70;99.90;;;;;;5020311;28;20049;-73
2022/10/18 08:23:33;;;;;;;21.60;8.25;;;7.20;99.90;;;;;;5036909;28;20170;-73
2022/10/18 08:26:02;;;;;;;32.85;9.43;;;9.00;99.90;;;;;;5020738;28;20046;-74
2022/10/18 08:28:30;;;;;;;33.60;9.95;;;7.40;99.90;;;;;;5020048;28;20049;-73
2022/10/18 08:31:02;;;;;;;34.90;11.02;;;8.60;99.90;;;;;;5037641;28;20057;-73
2022/10/18 08:33:30;;;;;;;41.40;10.73;;;9.30;99.90;;;;;;5013718;28;20053;-73
2022/10/18 08:36:00;;;;;;;39.63;11.98;;;7.60;99.90;;;;;;5016069;28;20341;-72
2022/10/18 08:38:31;;;;;;;39.58;13.60;;;9.80;99.90;;;;;;5022135;28;20050;-72
2022/10/18 08:41:37;;;;;;;46.10;16.60;;;8.60;99.90;;;;;;5018838;28;20041;-73
2022/10/18 08:44:21;;;;;;;45.20;17.08;;;8.00;99.90;;;;;;5016109;28;20060;-71
2022/10/18 08:46:52;;;;;;;50.05;17.27;;;8.20;99.90;;;;;;5031122;28;20356;-73
2022/10/18 08:49:28;;;;;;;48.63;18.08;;;8.40;99.90;;;;;;5037076;28;20041;-71
2022/10/18 08:51:57;;;;;;;60.45;21.13;;;8.50;99.90;;;;;;5000537;28;20052;-71
2022/10/18 08:54:33;;;;;;;74.88;24.83;;;10.50;99.90;;;;;;5033874;28;20049;-74
2022/10/18 08:57:03;;;;;;;75.32;25.50;;;8.70;99.90;;;;;;4999731;28;20049;-76
2022/10/18 08:59:38;;;;;;;94.20;34.22;;;8.90;99.90;;;;;;5016777;28;20057;-75
2022/10/18 09:02:18;;;;;;;118.03;53.28;;;9.20;99.90;;;;;;5016552;28;20065;-74
2022/10/18 09:05:08;;;;;;;133.73;61.00;;;9.40;99.90;;;;;;5016543;28;20368;-75
2022/10/18 09:07:38;;;;;;;136.70;78.13;;;9.40;99.90;;;;;;5016955;28;20054;-75
2022/10/18 09:10:21;;;;;;;165.45;94.75;;;9.50;99.90;;;;;;5015776;28;20472;-74
2022/10/18 09:13:18;;;;;;;141.48;71.93;;;9.60;99.90;;;;;;4999793;28;20071;-75
2022/10/18 09:15:58;;;;;;;129.52;66.90;;;9.70;99.90;;;;;;5008851;28;20049;-74
2022/10/18 09:19:04;;;;;;;121.20;58.05;;;9.80;99.90;;;;;;5036326;28;20487;-75
2022/10/18 09:21:46;;;;;;;123.82;61.22;;;9.90;99.90;;;;;;5023072;28;20673;-77
2022/10/18 09:24:36;;;;;;;106.85;50.35;;;9.90;99.90;;;;;;5034894;28;20376;-76
2022/10/18 09:27:15;;;;;;;82.82;32.83;;;10.00;99.90;;;;;;5036428;28;20057;-76
2022/10/18 09:30:04;;;;;;;69.32;24.35;;;10.10;99.90;;;;;;5035227;28;20364;-77
2022/10/18 09:32:49;;;;;;;55.25;17.45;;;10.20;99.90;;;;;;5036288;28;20073;-76
2022/10/18 09:35:24;;;;;;;51.10;16.58;;;10.30;99.90;;;;;;5050813;28;20045;-75
2022/10/18 09:38:01;;;;;;;41.63;14.82;;;10.80;99.90;;;;;;5035189;28;20141;-74
2022/10/18 09:40:31;;;;;;;47.58;13.95;;;10.40;99.90;;;;;;5035229;28;20049;-74
2022/10/18 09:43:06;;;;;;;51.50;14.43;;;10.50;99.90;;;;;;5054007;28;20451;-73
2022/10/18 09:45:44;;;;;;;52.63;12.32;;;11.40;99.90;;;;;;5055844;28;20063;-74
2022/10/18 09:48:23;;;;;;;43.17;11.57;;;10.60;99.90;;;;;;5054414;28;20045;-73
2022/10/18 09:50:59;;;;;;;47.38;12.20;;;10.60;99.90;;;;;;5055800;28;20045;-76
2022/10/18 09:53:37;;;;;;;36.30;11.95;;;10.70;99.90;;;;;;5055017;28;20045;-73
2022/10/18 09:56:05;;;;;;;43.72;11.15;;;10.70;99.90;;;;;;5043804;28;20042;-74
2022/10/18 09:58:42;;;;;;;38.42;9.05;;;10.80;99.90;;;;;;5038703;28;20068;-73
2022/10/18 10:01:14;;;;;;;42.78;10.15;;;10.90;99.90;;;;;;5055704;28;20037;-73
2022/10/18 10:03:41;;;;;;;40.95;10.15;;;10.90;99.90;;;;;;5056381;28;20048;-75
2022/10/18 10:06:13;;;;;;;48.13;9.48;;;10.90;99.90;;;;;;5055903;28;20045;-74
2022/10/18 10:09:02;;;;;;;36.60;7.75;;;11.00;99.90;;;;;;5054653;28;20041;-74
2022/10/18 10:11:39;;;;;;;36.65;8.02;;;11.00;99.90;;;;;;5038318;28;20053;-73
2022/10/18 10:14:26;;;;;;;29.13;7.05;;;11.10;99.90;;;;;;5055961;28;20056;-74
2022/10/18 10:17:02;;;;;;;31.73;6.70;;;11.10;99.90;;;;;;5034045;28;20372;-74
2022/10/18 10:19:32;;;;;;;29.88;6.55;;;11.20;99.90;;;;;;5001428;28;20053;-74
2022/10/18 10:22:08;;;;;;;36.30;5.63;;;11.30;99.90;;;;;;5034345;28;20376;-76
2022/10/18 10:24:49;;;;;;;31.20;5.72;;;11.40;99.90;;;;;;5030693;28;20045;-74
2022/10/18 10:27:31;;;;;;;32.47;5.90;;;11.40;99.90;;;;;;5001830;28;20381;-74
2022/10/18 10:30:01;;;;;;;20.48;4.72;;;11.50;99.90;;;;;;5017083;28;20057;-75
2022/10/18 10:32:48;;;;;;;32.38;4.93;;;11.50;99.90;;;;;;5035507;28;20049;-75
2022/10/18 10:35:34;;;;;;;20.17;4.30;;;11.70;99.90;;;;;;5034466;28;20087;-74
2022/10/18 10:38:28;;;;;;;24.65;4.13;;;11.70;99.90;;;;;;5022531;28;20361;-74
2022/10/18 10:40:59;;;;;;;26.17;4.68;;;11.70;99.90;;;;;;5014693;28;20042;-76
2022/10/18 10:43:33;;;;;;;16.52;3.85;;;12.30;99.90;;;;;;5014279;28;20053;-74
2022/10/18 10:46:19;;;;;;;22.08;4.13;;;12.20;99.90;;;;;;5020615;28;20049;-74
2022/10/18 10:48:50;;;;;;;24.10;4.25;;;11.90;99.90;;;;;;5023930;28;20453;-75
2022/10/18 10:51:35;;;;;;;20.25;3.97;;;12.00;99.90;;;;;;5018165;28;20057;-75
2022/10/18 10:54:10;;;;;;;21.63;4.15;;;12.00;99.90;;;;;;5016126;28;20045;-74
2022/10/18 10:56:54;;;;;;;22.05;3.72;;;12.00;99.90;;;;;;5034589;28;20041;-75
2022/10/18 10:59:25;;;;;;;19.02;3.58;;;11.40;99.90;;;;;;5034909;28;20049;-75
2022/10/18 11:02:20;;;;;;;17.55;2.83;;;12.30;99.90;;;;;;5016921;28;20049;-75
2022/10/18 11:04:53;;;;;;;19.85;2.97;;;12.20;99.90;;;;;;5035188;28;20384;-73
2022/10/18 11:07:42;;;;;;;14.25;2.63;;;12.30;99.90;;;;;;5017612;28;20045;-74
2022/10/18 11:10:09;;;;;;;19.17;2.80;;;12.40;99.90;;;;;;5033713;28;20042;-74
2022/10/18 11:12:41;;;;;;;16.70;2.83;;;12.50;99.90;;;;;;5035130;28;20388;-74
2022/10/18 11:15:15;;;;;;;13.93;2.42;;;12.60;99.90;;;;;;5033908;28;20298;-75
2022/10/18 11:17:52;;;;;;;15.45;2.28;;;12.60;99.90;;;;;;5034789;28;20046;-75
2022/10/18 11:20:24;;;;;;;15.25;2.58;;;12.70;99.90;;;;;;5017843;28;20051;-74
2022/10/18 11:23:10;;;;;;;19.98;2.90;;;12.70;99.90;;;;;;5016357;28;20050;-74
2022/10/18 11:25:38;;;;;;;17.75;2.72;;;12.80;99.90;;;;;;5034636;28;20049;-75
2022/10/18 11:28:33;;;;;;;18.63;2.85;;;12.90;99.90;;;;;;5016484;28;20475;-76
2022/10/18 11:31:26;;;;;;;13.10;2.42;;;12.90;99.90;;;;;;5034384;28;20050;-74
2022/10/18 11:34:29;;;;;;;14.55;2.40;;;13.00;99.90;;;;;;5034997;28;20472;-75
2022/10/18 11:37:18;;;;;;;15.63;2.60;;;13.10;99.90;;;;;;5017297;28;20045;-76
2022/10/18 11:40:17;;;;;;;19.75;2.95;;;13.20;99.90;;;;;;5017301;28;20061;-74
2022/10/18 11:42:57;;;;;;;15.88;2.65;;;13.20;99.90;;;;;;5033386;28;20052;-74
2022/10/18 11:45:44;;;;;;;16.77;2.83;;;13.30;99.90;;;;;;5034410;28;20056;-75
2022/10/18 11:48:38;;;;;;;18.48;2.53;;;13.40;99.90;;;;;;5035567;28;20054;-75
2022/10/18 11:51:35;;;;;;;16.23;2.58;;;13.50;99.90;;;;;;5038750;28;20053;-74
2022/10/18 11:54:48;;;;;;;14.55;2.55;;;13.60;99.90;;;;;;5038884;28;20060;-76
2022/10/18 11:57:28;;;;;;;13.85;2.45;;;13.70;99.90;;;;;;5021260;28;20045;-75
2022/10/18 12:00:19;;;;;;;13.75;2.50;;;13.80;99.90;;;;;;5038259;28;20487;-76
2022/10/18 12:02:59;;;;;;;16.27;2.60;;;13.90;99.90;;;;;;5020219;28;20041;-76
2022/10/18 12:05:29;;;;;;;16.33;2.30;;;13.90;99.90;;;;;;5020961;28;20060;-76
2022/10/18 12:07:59;;;;;;;13.95;2.10;;;14.00;99.90;;;;;;5019861;28;20041;-76
2022/10/18 12:10:30;;;;;;;22.63;2.80;;;14.10;99.90;;;;;;5038689;28;20057;-75
2022/10/18 12:13:41;;;;;;;15.63;2.22;;;14.20;99.90;;;;;;5023821;28;20052;-75
2022/10/18 12:16:09;;;;;;;14.20;2.08;;;14.30;99.90;;;;;;5044922;28;20057;-76
2022/10/18 12:19:10;;;;;;;15.05;2.53;;;14.40;99.90;;;;;;5057680;28;20045;-76
2022/10/18 12:21:39;;;;;;;13.52;2.47;;;14.30;99.90;;;;;;5056648;28;20052;-74
2022/10/18 12:24:14;;;;;;;13.30;2.20;;;14.50;99.90;;;;;;5057776;28;20448;-75
2022/10/18 12:26:42;;;;;;;15.25;2.22;;;14.60;99.90;;;;;;5056834;28;20375;-75
2022/10/18 12:29:12;;;;;;;12.38;2.33;;;13.90;99.90;;;;;;5056550;28;20048;-75
2022/10/18 12:31:57;;;;;;;12.27;2.13;;;14.70;99.90;;;;;;5058092;28;20049;-75
2022/10/18 12:34:49;;;;;;;14.43;2.00;;;14.80;99.90;;;;;;5056837;28;20048;-74
2022/10/18 12:37:26;;;;;;;15.55;2.30;;;14.90;99.90;;;;;;5057727;28;20458;-76
2022/10/18 12:40:00;;;;;;;9.43;1.95;;;15.00;99.90;;;;;;5057066;28;20059;-75
2022/10/18 12:42:50;;;;;;;18.35;2.50;;;15.00;99.90;;;;;;5056367;28;20047;-76
2022/10/18 12:45:32;;;;;;;13.05;2.30;;;15.20;99.90;;;;;;5056718;28;20048;-76
2022/10/18 12:48:03;;;;;;;17.85;2.22;;;15.20;99.90;;;;;;5056652;28;20045;-75
2022/10/18 12:50:36;;;;;;;16.88;1.98;;;15.20;99.90;;;;;;5057657;28;20045;-76
2022/10/18 12:53:18;;;;;;;11.43;2.38;;;15.40;99.90;;;;;;5057405;28;20371;-75
2022/10/18 12:55:50;;;;;;;17.73;2.75;;;15.40;99.90;;;;;;5055739;28;20056;-74
2022/10/18 12:58:29;;;;;;;14.40;2.58;;;15.40;99.90;;;;;;5057181;28;20052;-76
2022/10/18 13:01:01;;;;;;;16.10;2.25;;;15.50;99.90;;;;;;5039364;28;20468;-75
2022/10/18 13:03:54;;;;;;;14.68;2.47;;;15.60;99.90;;;;;;5054996;28;20048;-76
2022/10/18 13:06:22;;;;;;;10.48;1.90;;;15.60;99.90;;;;;;5056897;28;20049;-75
2022/10/18 13:09:09;;;;;;;;;;;15.70;99.90;;;;;;5056244;28;20037;-73
2022/10/18 13:11:37;;;;;;;16.80;2.63;;;15.70;99.90;;;;;;5056055;28;19929;-74
2022/10/18 13:14:25;;;;;;;13.43;2.60;;;15.50;99.90;;;;;;5057276;28;20049;-75
2022/10/18 13:17:15;;;;;;;13.73;2.50;;;15.80;99.90;;;;;;5054546;28;20053;-76